Forside
METAR-TAF:

METAR-TAF

Lufthavne :

Flemingsburg, Kentucky, USA

Breddekreds: 38-32-30N, længdekreds: 083-44-36W, højde: 278 m

Aktuelle vejr

Denne rapport blev lavet for 28 minutter siden, kl. 13:15 UTC
Vind 4 kt fra østnordøst
Temperatur 6°C
Fugtighed 70%
Tryk 1015 hPa
Sigt: 16.1 km
Brudte skyer i en højde af 12000 ft

METAR: KFGX 311315Z AUTO 06004KT 10SM BKN120 06/01 A2997 RMK AO2 T00550014

Tid: 09:43 (13:43 UTC)


TAF: fraværende

Vejrobservationer og prognoser fra mere end 4000 lufthavne (METAR og TAF).

De gule og røde prikker repræsenterer de meteorologiske stationer.

Flyt musen over at se navnet på stationen.

Så klik over at se vejr observationer og prognoser.

At skifte det kort: Klik på de grønne knapper med et sort kors for at zoome ind; på den grønne knap med en bindestreg for at zoome ud; eller på de grønne pile for tilstødende kort.


METAR-TAF: